createdAt,value
2023-03-29T00:02:56.651Z,2.60
2023-03-29T00:06:03.068Z,1.65
2023-03-29T00:09:06.221Z,0.63
2023-03-29T00:12:08.552Z,2.88
2023-03-29T00:15:11.150Z,1.83
2023-03-29T00:18:13.389Z,2.90
2023-03-29T00:21:15.708Z,1.40
2023-03-29T00:24:17.967Z,1.08
2023-03-29T00:27:23.431Z,4.68
2023-03-29T00:30:25.717Z,0.43
2023-03-29T00:33:27.899Z,0.53
2023-03-29T00:36:30.140Z,5.07
2023-03-29T00:39:32.511Z,0.55
2023-03-29T00:42:34.667Z,0.80
2023-03-29T00:45:37.156Z,1.23
2023-03-29T00:48:39.455Z,1.90
2023-03-29T00:51:42.685Z,0.70
2023-03-29T00:54:45.732Z,0.93
2023-03-29T00:57:49.297Z,0.70
2023-03-29T01:00:55.442Z,0.77
2023-03-29T01:04:03.380Z,0.20
2023-03-29T01:07:23.317Z,4.05
2023-03-29T01:10:38.527Z,0.63
2023-03-29T01:13:43.924Z,0.70
2023-03-29T01:16:46.776Z,0.40
2023-03-29T01:19:50.971Z,1.83
2023-03-29T01:22:58.293Z,1.02
2023-03-29T01:26:15.966Z,1.23
2023-03-29T01:29:29.312Z,1.50
2023-03-29T01:32:37.733Z,0.07
2023-03-29T01:35:49.405Z,7.77
2023-03-29T01:38:55.609Z,1.23
2023-03-29T01:42:01.003Z,1.08
2023-03-29T01:45:13.120Z,0.57
2023-03-29T01:48:32.719Z,0.43
2023-03-29T01:51:37.397Z,1.30
2023-03-29T01:55:06.814Z,0.68
2023-03-29T01:58:10.522Z,0.73
2023-03-29T02:01:17.819Z,0.30
2023-03-29T02:04:22.841Z,0.73
2023-03-29T02:07:26.837Z,0.30
2023-03-29T02:10:29.948Z,0.47
2023-03-29T02:13:32.272Z,3.08
2023-03-29T02:16:35.947Z,0.68
2023-03-29T02:19:39.308Z,0.70
2023-03-29T02:22:46.340Z,0.77
2023-03-29T02:25:53.512Z,0.75
2023-03-29T02:28:56.896Z,0.73
2023-03-29T02:32:19.527Z,1.20
2023-03-29T02:35:26.606Z,1.80
2023-03-29T02:38:29.830Z,0.40
2023-03-29T02:41:33.894Z,1.02
2023-03-29T02:44:38.232Z,1.00
2023-03-29T02:47:46.537Z,2.75
2023-03-29T02:50:51.005Z,0.63
2023-03-29T02:54:00.248Z,2.23
2023-03-29T02:57:06.376Z,1.05
2023-03-29T03:00:10.235Z,1.05
2023-03-29T03:03:13.127Z,0.40
2023-03-29T03:06:15.554Z,2.20
2023-03-29T03:09:18.094Z,2.63
2023-03-29T03:12:22.145Z,1.00
2023-03-29T03:15:26.392Z,1.45
2023-03-29T03:18:28.775Z,0.30
2023-03-29T03:21:30.986Z,2.17
2023-03-29T03:24:35.545Z,1.57
2023-03-29T03:27:38.857Z,1.23
2023-03-29T03:30:41.120Z,0.80
2023-03-29T03:33:58.860Z,1.77
2023-03-29T03:37:12.083Z,1.00
2023-03-29T03:40:14.486Z,0.97
2023-03-29T03:43:17.449Z,1.10
2023-03-29T03:46:22.275Z,0.75
2023-03-29T03:49:25.290Z,1.58
2023-03-29T03:52:27.712Z,2.47
2023-03-29T03:55:30.164Z,1.27
2023-03-29T03:58:44.861Z,1.90
2023-03-29T04:01:47.539Z,0.40
2023-03-29T04:04:54.870Z,0.77
2023-03-29T04:08:01.387Z,4.33
2023-03-29T04:11:15.339Z,1.43
2023-03-29T04:14:18.175Z,1.10
2023-03-29T04:17:36.939Z,0.40
2023-03-29T04:21:08.154Z,1.80
2023-03-29T04:24:11.106Z,1.63
2023-03-29T04:27:17.360Z,1.47
2023-03-29T04:30:20.278Z,0.50
2023-03-29T04:33:47.516Z,3.50
2023-03-29T04:36:51.016Z,1.65
2023-03-29T04:40:00.378Z,1.20
2023-03-29T04:43:06.380Z,0.63
2023-03-29T04:46:09.779Z,0.93
2023-03-29T04:49:31.219Z,1.77
2023-03-29T04:52:34.952Z,1.95
2023-03-29T04:55:38.849Z,0.93
2023-03-29T04:58:44.559Z,0.63
2023-03-29T05:01:47.529Z,2.03
2023-03-29T05:04:50.624Z,1.20
2023-03-29T05:07:54.990Z,1.75
2023-03-29T05:11:02.696Z,1.97
2023-03-29T05:14:07.444Z,1.63
2023-03-29T05:17:10.158Z,1.83
2023-03-29T05:20:13.258Z,1.20
2023-03-29T05:23:18.545Z,2.20
2023-03-29T05:26:41.043Z,2.30
2023-03-29T05:29:44.851Z,1.97
2023-03-29T05:33:08.614Z,1.85
2023-03-29T05:36:13.728Z,3.53
2023-03-29T05:39:21.188Z,1.88
2023-03-29T05:42:24.039Z,3.30
2023-03-29T05:45:36.265Z,3.60
2023-03-29T05:48:41.616Z,3.20
2023-03-29T05:51:45.737Z,2.22
2023-03-29T05:55:10.752Z,2.65
2023-03-29T05:58:13.862Z,2.80
2023-03-29T06:01:23.564Z,3.83
2023-03-29T06:04:41.008Z,3.17
2023-03-29T06:08:15.162Z,3.72
2023-03-29T06:11:31.289Z,4.45
2023-03-29T06:14:46.790Z,9.07
2023-03-29T06:18:07.116Z,3.67
2023-03-29T06:21:12.749Z,2.67
2023-03-29T06:24:16.334Z,5.13
2023-03-29T06:27:26.008Z,2.50
2023-03-29T06:30:30.078Z,4.30
2023-03-29T06:33:38.233Z,3.13
2023-03-29T06:37:00.600Z,8.70
2023-03-29T06:40:07.473Z,2.83
2023-03-29T06:43:16.440Z,5.43
2023-03-29T06:46:43.424Z,3.65
2023-03-29T06:49:46.723Z,5.70
2023-03-29T06:53:04.726Z,2.95
2023-03-29T06:56:09.484Z,5.75
2023-03-29T06:59:18.973Z,4.25
2023-03-29T07:02:34.680Z,4.80
2023-03-29T07:05:45.951Z,3.87
2023-03-29T07:08:52.507Z,4.28
2023-03-29T07:12:14.064Z,3.60
2023-03-29T07:15:16.765Z,3.25
2023-03-29T07:18:38.045Z,5.18
2023-03-29T07:21:40.376Z,6.70
2023-03-29T07:24:42.754Z,4.45
2023-03-29T07:27:45.694Z,5.43
2023-03-29T07:30:47.942Z,3.58
2023-03-29T07:33:56.472Z,4.10
2023-03-29T07:37:00.767Z,3.33
2023-03-29T07:40:09.030Z,2.67
2023-03-29T07:43:37.088Z,3.95
2023-03-29T07:46:39.339Z,4.32
2023-03-29T07:49:42.431Z,4.63
2023-03-29T07:52:45.712Z,5.27
2023-03-29T07:55:49.236Z,4.03
2023-03-29T07:59:20.861Z,3.75
2023-03-29T08:02:30.828Z,2.17
2023-03-29T08:05:41.238Z,6.68
2023-03-29T08:08:49.219Z,3.63
2023-03-29T08:11:53.924Z,5.53
2023-03-29T08:15:01.781Z,3.92
2023-03-29T08:18:11.030Z,3.75
2023-03-29T08:21:14.865Z,3.38
2023-03-29T08:24:21.441Z,4.33
2023-03-29T08:27:28.348Z,2.60
2023-03-29T08:30:31.362Z,2.80
2023-03-29T08:33:34.270Z,4.53
2023-03-29T08:36:56.512Z,2.22
2023-03-29T08:40:07.136Z,2.70
2023-03-29T08:43:30.691Z,3.50
2023-03-29T08:47:05.450Z,2.38
2023-03-29T08:50:14.333Z,2.03
2023-03-29T08:53:23.279Z,3.50
2023-03-29T08:56:47.928Z,4.07
2023-03-29T08:59:58.530Z,1.67
2023-03-29T09:03:03.338Z,1.92
2023-03-29T09:06:07.768Z,1.13
2023-03-29T09:09:16.558Z,2.95
2023-03-29T09:12:30.889Z,1.90
2023-03-29T09:15:45.043Z,3.63
2023-03-29T09:19:18.728Z,2.20
2023-03-29T09:22:37.468Z,2.30
2023-03-29T09:25:57.412Z,2.35
2023-03-29T09:29:38.070Z,1.97
2023-03-29T09:32:44.578Z,1.77
2023-03-29T09:35:51.922Z,2.33
2023-03-29T09:38:55.892Z,1.42
2023-03-29T09:42:05.181Z,2.00
2023-03-29T09:45:08.880Z,1.57
2023-03-29T09:48:20.936Z,1.52
2023-03-29T09:51:34.628Z,2.22
2023-03-29T09:54:39.900Z,2.55
2023-03-29T09:58:13.056Z,1.38
2023-03-29T10:01:19.871Z,1.33
2023-03-29T10:04:26.019Z,1.10
2023-03-29T10:07:37.060Z,1.67
2023-03-29T10:10:39.417Z,1.75
2023-03-29T10:13:47.415Z,2.03
2023-03-29T10:16:55.014Z,4.27
2023-03-29T10:19:58.989Z,2.53
2023-03-29T10:23:02.006Z,1.55
2023-03-29T10:26:06.704Z,2.25
2023-03-29T10:29:12.665Z,1.25
2023-03-29T10:32:24.151Z,2.60
2023-03-29T10:35:31.976Z,2.65
2023-03-29T10:38:35.434Z,1.67
2023-03-29T10:41:39.146Z,2.92
2023-03-29T10:44:41.953Z,2.47
2023-03-29T10:47:45.263Z,2.87
2023-03-29T10:50:53.104Z,2.40
2023-03-29T10:53:57.030Z,2.83
2023-03-29T10:57:01.471Z,3.33
2023-03-29T11:00:08.167Z,2.92
2023-03-29T11:03:21.594Z,3.00
2023-03-29T11:06:37.149Z,2.90
2023-03-29T11:09:39.485Z,1.63
2023-03-29T11:13:00.019Z,1.55
2023-03-29T11:16:13.316Z,3.15
2023-03-29T11:19:24.960Z,2.90
2023-03-29T11:22:41.965Z,2.95
2023-03-29T11:25:50.577Z,3.15
2023-03-29T11:28:57.259Z,1.70
2023-03-29T11:31:59.699Z,2.40
2023-03-29T11:35:02.311Z,1.80
2023-03-29T11:38:05.574Z,3.38
2023-03-29T11:41:18.948Z,3.83
2023-03-29T11:44:24.722Z,3.00
2023-03-29T11:47:30.687Z,3.72
2023-03-29T11:50:43.742Z,2.13
2023-03-29T11:53:50.307Z,3.03
2023-03-29T11:56:58.970Z,2.67
2023-03-29T12:00:35.299Z,2.50
2023-03-29T12:03:46.350Z,5.20
2023-03-29T12:07:00.634Z,2.37
2023-03-29T12:10:07.100Z,3.42
2023-03-29T12:13:15.232Z,2.35
2023-03-29T12:16:19.400Z,2.25
2023-03-29T12:19:23.130Z,4.07
2023-03-29T12:22:25.560Z,2.33
2023-03-29T12:25:38.107Z,2.80
2023-03-29T12:28:52.643Z,3.17
2023-03-29T12:32:13.301Z,4.43
2023-03-29T12:35:44.485Z,2.28
2023-03-29T12:38:48.243Z,3.90
2023-03-29T12:42:23.859Z,1.98
2023-03-29T12:45:54.114Z,2.50
2023-03-29T12:48:58.018Z,4.10
2023-03-29T12:52:02.469Z,2.50
2023-03-29T12:55:17.340Z,5.97
2023-03-29T12:58:26.032Z,3.30
2023-03-29T13:01:33.125Z,2.70
2023-03-29T13:04:37.517Z,4.32
2023-03-29T13:07:47.493Z,5.45
2023-03-29T13:10:53.816Z,2.47
2023-03-29T13:13:57.436Z,2.28
2023-03-29T13:17:17.795Z,3.72
2023-03-29T13:20:27.345Z,3.58
2023-03-29T13:23:29.598Z,3.22
2023-03-29T13:26:37.804Z,2.73
2023-03-29T13:29:53.151Z,2.15
2023-03-29T13:33:34.057Z,3.55
2023-03-29T13:36:58.345Z,3.85
2023-03-29T13:40:00.670Z,3.72
2023-03-29T13:43:19.255Z,3.40
2023-03-29T13:46:41.090Z,3.97
2023-03-29T13:49:44.721Z,4.93
2023-03-29T13:52:57.203Z,3.83
2023-03-29T13:55:59.772Z,6.13
2023-03-29T13:59:22.338Z,5.47
2023-03-29T14:02:27.591Z,5.03
2023-03-29T14:05:33.713Z,4.57
2023-03-29T14:08:39.927Z,5.32
2023-03-29T14:11:44.607Z,3.60
2023-03-29T14:14:58.260Z,4.20
2023-03-29T14:18:01.672Z,5.18
2023-03-29T14:21:04.087Z,6.75
2023-03-29T14:24:10.143Z,4.65
2023-03-29T14:27:12.456Z,2.88
2023-03-29T14:30:27.576Z,3.53
2023-03-29T14:33:32.435Z,4.38
2023-03-29T14:36:34.915Z,4.15
2023-03-29T14:39:37.823Z,3.80
2023-03-29T14:42:41.223Z,5.22
2023-03-29T14:45:43.815Z,5.97
2023-03-29T14:48:46.281Z,4.95
2023-03-29T14:51:49.386Z,4.05
2023-03-29T14:54:53.262Z,4.60
2023-03-29T14:57:56.046Z,4.03
2023-03-29T15:00:58.365Z,2.90
2023-03-29T15:04:08.598Z,5.20
2023-03-29T15:07:10.804Z,6.68
2023-03-29T15:10:19.528Z,4.18
2023-03-29T15:13:24.514Z,4.35
2023-03-29T15:16:27.631Z,3.73
2023-03-29T15:19:31.065Z,4.55
2023-03-29T15:22:34.011Z,4.50
2023-03-29T15:25:38.213Z,4.82
2023-03-29T15:28:48.320Z,3.88
2023-03-29T15:31:54.822Z,4.13
2023-03-29T15:35:01.454Z,4.45
2023-03-29T15:38:05.435Z,4.97
2023-03-29T15:41:08.535Z,4.15
2023-03-29T15:44:11.292Z,4.05
2023-03-29T15:47:13.618Z,4.90
2023-03-29T15:50:15.877Z,2.65
2023-03-29T15:53:20.207Z,3.53
2023-03-29T15:56:23.026Z,3.75
2023-03-29T15:59:25.356Z,5.00
2023-03-29T16:02:28.125Z,3.37
2023-03-29T16:05:30.388Z,6.35
2023-03-29T16:08:32.644Z,4.88
2023-03-29T16:11:35.375Z,5.65
2023-03-29T16:14:37.641Z,4.70
2023-03-29T16:17:40.150Z,3.70
2023-03-29T16:20:42.657Z,3.97
2023-03-29T16:23:45.904Z,3.17
2023-03-29T16:26:48.635Z,4.22
2023-03-29T16:29:51.004Z,6.60
2023-03-29T16:32:53.338Z,2.53
2023-03-29T16:35:56.177Z,3.17
2023-03-29T16:38:58.939Z,7.05
2023-03-29T16:42:01.188Z,4.53
2023-03-29T16:45:03.518Z,3.95
2023-03-29T16:48:05.886Z,7.13
2023-03-29T16:51:09.532Z,4.88
2023-03-29T16:54:11.866Z,4.18
2023-03-29T16:57:14.207Z,5.47
2023-03-29T17:00:19.565Z,5.25
2023-03-29T17:03:22.004Z,5.77
2023-03-29T17:06:24.267Z,5.85
2023-03-29T17:09:29.278Z,4.93
2023-03-29T17:12:31.981Z,4.47
2023-03-29T17:15:35.598Z,3.88
2023-03-29T17:18:39.148Z,3.90
2023-03-29T17:21:41.342Z,5.70
2023-03-29T17:24:43.652Z,7.50
2023-03-29T17:27:46.788Z,7.65
2023-03-29T17:30:49.064Z,9.65
2023-03-29T17:33:52.190Z,6.90
2023-03-29T17:36:55.254Z,6.55
2023-03-29T17:39:57.488Z,8.95
2023-03-29T17:42:59.730Z,12.18
2023-03-29T17:46:02.344Z,10.38
2023-03-29T17:49:05.556Z,11.43
2023-03-29T17:52:07.980Z,12.30
2023-03-29T17:55:13.515Z,18.08
2023-03-29T17:58:16.623Z,7.78
2023-03-29T18:01:22.484Z,18.73
2023-03-29T18:04:24.911Z,10.47
2023-03-29T18:07:27.438Z,9.88
2023-03-29T18:10:29.838Z,11.25
2023-03-29T18:13:32.380Z,9.30
2023-03-29T18:16:34.738Z,12.38
2023-03-29T18:19:37.222Z,12.43
2023-03-29T18:22:40.058Z,10.65
2023-03-29T18:25:42.483Z,12.30
2023-03-29T18:28:47.077Z,12.43
2023-03-29T18:31:49.618Z,9.45
2023-03-29T18:34:52.069Z,16.20
2023-03-29T18:37:54.651Z,12.25
2023-03-29T18:40:57.280Z,13.30
2023-03-29T18:44:00.951Z,14.35
2023-03-29T18:47:03.316Z,11.57
2023-03-29T18:50:05.869Z,11.23
2023-03-29T18:53:08.156Z,10.30
2023-03-29T18:56:11.309Z,8.90
2023-03-29T18:59:13.798Z,13.63
2023-03-29T19:02:16.209Z,6.43
2023-03-29T19:05:18.746Z,5.33
2023-03-29T19:08:22.191Z,5.00
2023-03-29T19:11:26.021Z,6.57
2023-03-29T19:14:30.203Z,3.65
2023-03-29T19:17:32.608Z,4.68
2023-03-29T19:20:35.950Z,4.60
2023-03-29T19:23:39.228Z,5.95
2023-03-29T19:26:41.628Z,4.13
2023-03-29T19:29:44.022Z,4.07
2023-03-29T19:32:46.898Z,3.38
2023-03-29T19:35:49.800Z,3.20
2023-03-29T19:38:52.039Z,5.35
2023-03-29T19:41:55.394Z,5.35
2023-03-29T19:44:57.747Z,10.82
2023-03-29T19:48:03.361Z,8.68
2023-03-29T19:51:06.750Z,9.83
2023-03-29T19:54:09.399Z,11.20
2023-03-29T19:57:11.999Z,12.38
2023-03-29T20:00:14.997Z,10.07
2023-03-29T20:03:17.849Z,12.43
2023-03-29T20:06:21.496Z,8.50
2023-03-29T20:09:23.890Z,11.70
2023-03-29T20:12:26.543Z,15.20
2023-03-29T20:15:29.001Z,11.85
2023-03-29T20:18:32.155Z,8.63
2023-03-29T20:21:37.239Z,8.37
2023-03-29T20:24:39.460Z,6.75
2023-03-29T20:27:42.773Z,7.28
2023-03-29T20:30:45.425Z,8.32
2023-03-29T20:33:47.703Z,8.13
2023-03-29T20:36:50.055Z,8.60
2023-03-29T20:39:52.627Z,8.73
2023-03-29T20:42:54.802Z,9.15
2023-03-29T20:45:57.066Z,10.57
2023-03-29T20:49:00.592Z,9.38
2023-03-29T20:52:05.959Z,13.90
2023-03-29T20:55:08.158Z,10.73
2023-03-29T20:58:10.447Z,8.98
2023-03-29T21:01:14.350Z,10.23
2023-03-29T21:04:16.580Z,9.45
2023-03-29T21:07:20.057Z,9.90
2023-03-29T21:10:23.657Z,12.25
2023-03-29T21:13:25.919Z,10.38
2023-03-29T21:16:29.118Z,8.93
2023-03-29T21:19:31.644Z,10.55
2023-03-29T21:22:34.921Z,7.90
2023-03-29T21:25:38.094Z,11.95
2023-03-29T21:28:41.264Z,11.23
2023-03-29T21:31:43.555Z,17.83
2023-03-29T21:34:45.959Z,15.15
2023-03-29T21:37:48.109Z,15.00
2023-03-29T21:40:50.741Z,16.45
2023-03-29T21:43:52.988Z,18.83
2023-03-29T21:46:55.273Z,11.75
2023-03-29T21:49:57.519Z,9.77
2023-03-29T21:53:00.004Z,14.00
2023-03-29T21:56:02.194Z,11.45
2023-03-29T21:59:04.617Z,9.35
2023-03-29T22:02:06.870Z,9.70
2023-03-29T22:05:09.166Z,7.50
2023-03-29T22:08:11.792Z,10.60
2023-03-29T22:11:14.682Z,7.10
2023-03-29T22:14:16.882Z,7.95
2023-03-29T22:17:19.325Z,7.60
2023-03-29T22:20:22.294Z,7.93
2023-03-29T22:23:24.970Z,10.53
2023-03-29T22:26:28.718Z,6.20
2023-03-29T22:29:31.063Z,8.07
2023-03-29T22:32:33.340Z,7.57
2023-03-29T22:35:35.769Z,7.18
2023-03-29T22:38:38.036Z,7.20
2023-03-29T22:41:40.268Z,8.07
2023-03-29T22:44:42.728Z,8.18
2023-03-29T22:47:44.960Z,11.02
2023-03-29T22:50:47.415Z,6.30
2023-03-29T22:53:49.805Z,6.70
2023-03-29T22:56:52.308Z,5.38
2023-03-29T22:59:54.507Z,8.25
2023-03-29T23:02:57.013Z,5.03
2023-03-29T23:06:02.304Z,7.32
2023-03-29T23:09:04.613Z,5.67
2023-03-29T23:12:06.900Z,7.00
2023-03-29T23:15:09.763Z,5.32
2023-03-29T23:18:15.552Z,7.70
2023-03-29T23:21:17.725Z,4.47
2023-03-29T23:24:19.947Z,5.27
2023-03-29T23:27:22.163Z,6.57
2023-03-29T23:30:24.686Z,8.70
2023-03-29T23:33:27.591Z,6.22
2023-03-29T23:36:31.552Z,6.45
2023-03-29T23:39:34.261Z,8.07
2023-03-29T23:42:37.244Z,9.57
2023-03-29T23:45:39.668Z,6.65
2023-03-29T23:48:46.149Z,6.82
2023-03-29T23:51:48.686Z,8.38
2023-03-29T23:54:51.361Z,7.17
2023-03-29T23:57:53.509Z,7.30
